Time;durP1;ratioP1;P1;durP2;ratioP2;P2;SDS_P1;SDS_P2;PMS_P1;PMS_P2;Temp;Humidity;BMP_temperature;BMP_pressure;BME280_temperature;BME280_humidity;BME280_pressure;Samples;Min_cycle;Max_cycle;Signal;HPM_P1;HPM_P2
2021/08/16 00:02:09;;;;;;;3.42;3.33;;;21.30;53.60;;;;;;5056661;28;20055;-83
2021/08/16 00:04:35;;;;;;;3.42;3.28;;;21.30;53.60;;;;;;5037988;28;20025;-83
2021/08/16 00:07:01;;;;;;;3.13;3.03;;;21.40;53.70;;;;;;5056193;28;20039;-82
2021/08/16 00:09:27;;;;;;;3.30;3.20;;;21.40;53.70;;;;;;5054346;28;20379;-83
2021/08/16 00:11:53;;;;;;;3.05;2.95;;;21.30;53.70;;;;;;5037750;28;20036;-84
2021/08/16 00:14:19;;;;;;;3.03;2.92;;;21.30;53.80;;;;;;5073203;28;20033;-83
2021/08/16 00:16:45;;;;;;;3.03;2.92;;;21.30;53.90;;;;;;5056188;28;20398;-83
2021/08/16 00:19:11;;;;;;;2.75;2.65;;;21.30;53.90;;;;;;5022550;28;20021;-83
2021/08/16 00:21:37;;;;;;;3.05;2.95;;;21.30;53.90;;;;;;5037705;28;20029;-82
2021/08/16 00:24:04;;;;;;;3.40;3.20;;;21.30;54.00;;;;;;5053264;28;20029;-82
2021/08/16 00:26:31;;;;;;;3.00;2.90;;;21.30;54.00;;;;;;5073168;28;20032;-83
2021/08/16 00:29:00;;;;;;;3.50;3.30;;;21.40;54.10;;;;;;5036565;28;20485;-83
2021/08/16 00:31:27;;;;;;;3.00;2.90;;;21.30;54.10;;;;;;5056036;28;20037;-81
2021/08/16 00:33:53;;;;;;;3.10;3.00;;;21.40;54.10;;;;;;5021855;28;20059;-82
2021/08/16 00:36:20;;;;;;;3.10;3.00;;;21.40;54.20;;;;;;5035150;28;20036;-83
2021/08/16 00:38:46;;;;;;;2.90;2.80;;;21.30;54.20;;;;;;5056739;28;20033;-83
2021/08/16 00:41:13;;;;;;;3.05;2.95;;;21.30;54.20;;;;;;5055772;28;20028;-83
2021/08/16 00:43:39;;;;;;;3.25;3.05;;;21.40;54.30;;;;;;5037330;28;20037;-82
2021/08/16 00:46:05;;;;;;;3.03;2.92;;;21.40;54.40;;;;;;5037913;28;20033;-83
2021/08/16 00:48:31;;;;;;;3.00;2.90;;;21.30;54.40;;;;;;5036691;28;20028;-83
2021/08/16 00:50:58;;;;;;;5.72;2.97;;;21.20;54.40;;;;;;5053004;28;20025;-83
2021/08/16 00:53:24;;;;;;;3.00;2.90;;;21.30;54.50;;;;;;5056773;28;20050;-83
2021/08/16 00:55:50;;;;;;;2.97;2.88;;;21.30;54.60;;;;;;5038381;28;20043;-83
2021/08/16 00:58:17;;;;;;;3.13;3.03;;;21.20;54.60;;;;;;5038156;28;20033;-83
2021/08/16 01:00:43;;;;;;;2.90;2.80;;;21.20;54.60;;;;;;5054721;28;20029;-82
2021/08/16 01:03:09;;;;;;;4.40;3.05;;;21.20;54.70;;;;;;5051592;28;20044;-81
2021/08/16 01:05:36;;;;;;;3.10;3.00;;;21.20;54.70;;;;;;5073232;28;20029;-83
2021/08/16 01:08:02;;;;;;;3.15;3.05;;;21.10;54.70;;;;;;5055672;28;20037;-84
2021/08/16 01:10:30;;;;;;;2.95;2.85;;;21.10;54.80;;;;;;5055691;28;20036;-83
2021/08/16 01:12:58;;;;;;;3.25;3.15;;;21.10;54.90;;;;;;5054901;28;20055;-83
2021/08/16 01:15:24;;;;;;;3.33;3.13;;;21.00;54.90;;;;;;5052282;28;20048;-83
2021/08/16 01:17:50;;;;;;;3.10;3.00;;;21.00;55.00;;;;;;5054371;28;20390;-83
2021/08/16 01:20:17;;;;;;;3.17;2.97;;;21.00;55.10;;;;;;5056467;28;20040;-83
2021/08/16 01:22:43;;;;;;;3.05;2.88;;;21.00;55.10;;;;;;5054222;28;20521;-83
2021/08/16 01:25:09;;;;;;;2.88;2.78;;;20.90;55.20;;;;;;5055649;28;20037;-83
2021/08/16 01:27:36;;;;;;;2.80;2.70;;;20.90;55.30;;;;;;5036445;28;20480;-83
2021/08/16 01:30:04;;;;;;;2.80;2.70;;;20.90;55.40;;;;;;5051581;28;20498;-82
2021/08/16 01:32:31;;;;;;;2.60;2.50;;;20.90;55.50;;;;;;5072668;28;20037;-82
2021/08/16 01:34:57;;;;;;;3.85;3.55;;;20.80;55.50;;;;;;5037158;28;20045;-82
2021/08/16 01:37:23;;;;;;;3.00;2.90;;;20.80;55.50;;;;;;5037459;28;20040;-82
2021/08/16 01:39:49;;;;;;;2.88;2.78;;;20.80;55.60;;;;;;5055394;28;20393;-83
2021/08/16 01:42:15;;;;;;;2.75;2.65;;;20.80;55.70;;;;;;5051378;28;20397;-83
2021/08/16 01:44:41;;;;;;;2.95;2.85;;;20.80;55.80;;;;;;5056836;28;20033;-83
2021/08/16 01:47:08;;;;;;;2.83;2.72;;;20.80;56.40;;;;;;5054801;28;20033;-83
2021/08/16 01:49:34;;;;;;;2.85;2.75;;;20.80;56.00;;;;;;5036305;28;20033;-83
2021/08/16 01:52:00;;;;;;;2.80;2.70;;;20.80;56.00;;;;;;5037246;28;20051;-83
2021/08/16 01:54:26;;;;;;;2.85;2.75;;;20.80;56.10;;;;;;5035822;28;20477;-83
2021/08/16 01:56:52;;;;;;;2.88;2.78;;;20.70;56.00;;;;;;5054073;28;20036;-83
2021/08/16 01:59:18;;;;;;;2.90;2.80;;;20.70;56.20;;;;;;5056029;28;20474;-83
2021/08/16 02:01:44;;;;;;;2.90;2.80;;;20.70;56.30;;;;;;5031616;28;20044;-82
2021/08/16 02:04:10;;;;;;;2.80;2.70;;;20.70;56.40;;;;;;5044654;28;20041;-82
2021/08/16 02:06:36;;;;;;;4.85;3.00;;;20.70;56.40;;;;;;5050845;28;20024;-80
2021/08/16 02:09:02;;;;;;;2.70;2.60;;;20.70;56.50;;;;;;5030859;28;20045;-82
2021/08/16 02:11:28;;;;;;;2.80;2.70;;;20.70;56.50;;;;;;5049503;28;20025;-83
2021/08/16 02:13:55;;;;;;;2.85;2.75;;;20.70;56.60;;;;;;5047023;28;20040;-84
2021/08/16 02:16:21;;;;;;;2.78;2.67;;;20.70;56.70;;;;;;5028277;28;20414;-82
2021/08/16 02:18:47;;;;;;;2.90;2.80;;;20.70;56.70;;;;;;5047398;28;20055;-83
2021/08/16 02:21:13;;;;;;;2.88;2.78;;;20.70;56.70;;;;;;5063145;28;20043;-83
2021/08/16 02:23:39;;;;;;;3.00;2.90;;;20.70;56.80;;;;;;5050080;28;20092;-84
2021/08/16 02:26:05;;;;;;;2.90;2.80;;;20.70;56.90;;;;;;5062322;28;20037;-82
2021/08/16 02:28:33;;;;;;;2.90;2.80;;;20.70;56.90;;;;;;5046924;28;20032;-85
2021/08/16 02:30:59;;;;;;;2.97;2.55;;;20.70;56.90;;;;;;5044151;28;20478;-82
2021/08/16 02:33:25;;;;;;;2.78;2.67;;;20.70;57.00;;;;;;5046284;28;20050;-82
2021/08/16 02:35:51;;;;;;;2.88;2.78;;;20.70;57.10;;;;;;5052415;28;20063;-82
2021/08/16 02:38:17;;;;;;;2.85;2.75;;;20.60;57.60;;;;;;5069912;28;20493;-82
2021/08/16 02:40:43;;;;;;;2.80;2.70;;;20.70;57.10;;;;;;5054445;28;20025;-84
2021/08/16 02:43:09;;;;;;;2.85;2.75;;;20.70;57.20;;;;;;5054472;28;20032;-82
2021/08/16 02:45:35;;;;;;;4.60;3.00;;;20.70;57.20;;;;;;5034878;28;20474;-81
2021/08/16 02:48:02;;;;;;;3.08;2.88;;;20.70;57.20;;;;;;5051109;28;20021;-82
2021/08/16 02:50:28;;;;;;;2.80;2.70;;;20.70;57.20;;;;;;5021555;28;20040;-83
2021/08/16 02:52:55;;;;;;;2.80;2.70;;;20.70;57.30;;;;;;5054495;28;20041;-83
2021/08/16 02:55:21;;;;;;;2.70;2.60;;;20.70;57.40;;;;;;5052937;28;20036;-82
2021/08/16 02:57:47;;;;;;;2.83;2.72;;;20.70;57.40;;;;;;5054353;28;20466;-83
2021/08/16 03:00:14;;;;;;;2.60;2.50;;;20.70;57.40;;;;;;5049591;28;20037;-82
2021/08/16 03:02:42;;;;;;;2.90;2.70;;;20.70;57.40;;;;;;5078801;28;20478;-83
2021/08/16 03:05:08;;;;;;;2.80;2.70;;;20.70;57.50;;;;;;5019257;28;20383;-81
2021/08/16 03:07:34;;;;;;;2.70;2.60;;;20.70;57.50;;;;;;5020437;28;20044;-83
2021/08/16 03:10:00;;;;;;;2.70;2.55;;;20.70;57.50;;;;;;5054115;28;20024;-82
2021/08/16 03:12:27;;;;;;;2.72;2.63;;;20.70;57.60;;;;;;5034051;28;20033;-82
2021/08/16 03:14:53;;;;;;;2.60;2.50;;;20.70;57.70;;;;;;5051194;28;20048;-83
2021/08/16 03:17:19;;;;;;;2.65;2.55;;;20.70;57.70;;;;;;5054860;28;20048;-83
2021/08/16 03:19:45;;;;;;;3.55;2.72;;;20.70;57.80;;;;;;5035445;28;20037;-83
2021/08/16 03:22:11;;;;;;;2.50;2.40;;;20.70;57.80;;;;;;5053696;28;20032;-82
2021/08/16 03:24:40;;;;;;;2.50;2.40;;;20.70;57.90;;;;;;5039099;28;20017;-82
2021/08/16 03:27:06;;;;;;;2.65;2.55;;;20.70;57.90;;;;;;5054091;28;20041;-83
2021/08/16 03:29:32;;;;;;;2.80;2.70;;;20.70;58.00;;;;;;5059663;28;20033;-82
2021/08/16 03:32:00;;;;;;;2.63;2.53;;;20.60;58.10;;;;;;5039143;28;20044;-82
2021/08/16 03:34:28;;;;;;;2.67;2.58;;;20.60;58.20;;;;;;5057327;28;20052;-82
2021/08/16 03:36:54;;;;;;;2.60;2.50;;;20.60;58.30;;;;;;5023601;28;20031;-84
2021/08/16 03:39:20;;;;;;;2.60;2.50;;;20.60;58.40;;;;;;5036243;28;20032;-82
2021/08/16 03:41:46;;;;;;;2.55;2.45;;;20.50;58.50;;;;;;5040162;28;20029;-82
2021/08/16 03:44:12;;;;;;;2.45;2.35;;;20.50;58.60;;;;;;5038524;28;20041;-82
2021/08/16 03:46:38;;;;;;;2.65;2.55;;;20.50;58.70;;;;;;5056627;28;20036;-82
2021/08/16 03:49:04;;;;;;;2.60;2.50;;;20.40;58.70;;;;;;5057396;28;20035;-83
2021/08/16 03:51:30;;;;;;;2.40;2.30;;;20.40;58.80;;;;;;5053938;28;20505;-82
2021/08/16 03:53:57;;;;;;;2.53;2.42;;;20.40;58.90;;;;;;5055182;28;20048;-83
2021/08/16 03:56:24;;;;;;;2.60;2.50;;;20.40;58.90;;;;;;5059272;28;20013;-83
2021/08/16 03:58:50;;;;;;;2.75;2.55;;;20.40;59.00;;;;;;5057113;28;20044;-82
2021/08/16 04:01:16;;;;;;;2.50;2.40;;;20.40;59.10;;;;;;5055469;28;20040;-83
2021/08/16 04:03:43;;;;;;;2.83;2.72;;;20.40;59.20;;;;;;5056891;28;20384;-82
2021/08/16 04:06:09;;;;;;;2.90;2.70;;;20.30;59.20;;;;;;5052855;28;20036;-82
2021/08/16 04:08:39;;;;;;;2.83;2.63;;;20.40;59.30;;;;;;5058492;28;20048;-82
2021/08/16 04:11:06;;;;;;;2.60;2.50;;;20.40;59.30;;;;;;5056261;28;20047;-82
2021/08/16 04:13:33;;;;;;;2.58;2.38;;;20.30;59.30;;;;;;5039155;28;20033;-82
2021/08/16 04:15:59;;;;;;;2.90;2.80;;;20.30;59.30;;;;;;5055970;28;20043;-80
2021/08/16 04:18:25;;;;;;;2.50;2.40;;;20.40;59.40;;;;;;5036884;28;20486;-82
2021/08/16 04:20:51;;;;;;;2.60;2.50;;;20.40;59.40;;;;;;5056064;28;20033;-81
2021/08/16 04:23:17;;;;;;;2.80;2.70;;;20.40;59.50;;;;;;5056286;28;20024;-83
2021/08/16 04:25:43;;;;;;;2.42;2.33;;;20.40;59.60;;;;;;5056879;28;20033;-83
2021/08/16 04:28:09;;;;;;;2.40;2.30;;;20.40;59.60;;;;;;5055377;28;20041;-84
2021/08/16 04:30:35;;;;;;;2.78;2.67;;;20.40;59.70;;;;;;5019094;28;20496;-84
2021/08/16 04:33:01;;;;;;;2.70;2.60;;;20.40;59.70;;;;;;5035523;28;20033;-84
2021/08/16 04:35:27;;;;;;;2.65;2.55;;;20.40;59.80;;;;;;5057469;28;20466;-83
2021/08/16 04:37:54;;;;;;;2.67;2.58;;;20.40;60.00;;;;;;5021367;28;20528;-84
2021/08/16 04:40:20;;;;;;;2.67;2.58;;;20.40;60.10;;;;;;5055722;28;20041;-83
2021/08/16 04:42:46;;;;;;;2.92;2.80;;;20.30;60.20;;;;;;5038941;28;20032;-83
2021/08/16 04:45:12;;;;;;;2.70;2.60;;;20.30;60.40;;;;;;5049699;28;20033;-83
2021/08/16 04:47:40;;;;;;;2.78;2.67;;;20.20;60.50;;;;;;5073707;28;20033;-82
2021/08/16 04:50:07;;;;;;;3.13;3.03;;;20.20;60.70;;;;;;5038320;28;20029;-82
2021/08/16 04:52:33;;;;;;;2.60;2.50;;;20.20;60.90;;;;;;5056009;28;20036;-83
2021/08/16 04:54:59;;;;;;;2.70;2.60;;;20.20;61.10;;;;;;5038471;28;20036;-84
2021/08/16 04:57:36;;;;;;;3.13;2.80;;;20.10;61.10;;;;;;5053018;28;20017;-86
2021/08/16 05:00:09;;;;;;;2.70;2.60;;;20.20;61.30;;;;;;5052373;28;20021;-77
2021/08/16 05:02:35;;;;;;;2.70;2.60;;;20.10;61.40;;;;;;5055808;28;20017;-84
2021/08/16 05:05:14;;;;;;;2.72;2.63;;;20.10;61.50;;;;;;5055954;28;20096;-83
2021/08/16 05:08:06;;;;;;;2.40;2.30;;;20.10;61.60;;;;;;5055227;28;20045;-83
2021/08/16 05:10:32;;;;;;;2.45;2.35;;;20.10;61.80;;;;;;5035340;28;20041;-83
2021/08/16 05:13:00;;;;;;;2.63;2.53;;;20.00;61.70;;;;;;5055339;28;20032;-84
2021/08/16 05:15:26;;;;;;;2.50;2.40;;;20.00;61.80;;;;;;5035988;28;20037;-83
2021/08/16 05:17:52;;;;;;;3.10;2.85;;;20.00;61.90;;;;;;5054749;28;20025;-83
2021/08/16 05:20:18;;;;;;;2.85;2.75;;;20.00;62.00;;;;;;5056946;28;20036;-83
2021/08/16 05:22:45;;;;;;;2.60;2.50;;;20.10;62.20;;;;;;5055563;28;20029;-85
2021/08/16 05:25:12;;;;;;;2.92;2.75;;;20.10;62.20;;;;;;5055587;28;20036;-83
2021/08/16 05:27:40;;;;;;;2.50;2.40;;;20.00;62.20;;;;;;5054348;28;20021;-84
2021/08/16 05:30:07;;;;;;;2.90;2.80;;;20.00;62.20;;;;;;5016612;28;20041;-85
2021/08/16 05:32:33;;;;;;;2.70;2.60;;;20.00;62.30;;;;;;5056040;28;20371;-84
2021/08/16 05:34:59;;;;;;;2.60;2.50;;;20.10;62.50;;;;;;5055240;28;20055;-84
2021/08/16 05:37:25;;;;;;;2.70;2.60;;;20.10;62.50;;;;;;5036690;28;20040;-82
2021/08/16 05:39:51;;;;;;;3.20;3.10;;;20.10;62.50;;;;;;5036167;28;20465;-83
2021/08/16 05:42:17;;;;;;;2.60;2.50;;;20.10;62.70;;;;;;5032605;28;20045;-83
2021/08/16 05:44:43;;;;;;;3.28;3.17;;;20.10;62.80;;;;;;5056312;28;20029;-84
2021/08/16 05:47:10;;;;;;;3.03;2.92;;;20.00;62.80;;;;;;5055117;28;20037;-83
2021/08/16 05:49:36;;;;;;;2.55;2.45;;;20.00;63.00;;;;;;5035424;28;20037;-84
2021/08/16 05:52:02;;;;;;;2.78;2.67;;;20.00;63.10;;;;;;5054162;28;20481;-83
2021/08/16 05:54:28;;;;;;;2.80;2.70;;;20.00;63.20;;;;;;5034791;28;20517;-84
2021/08/16 05:56:54;;;;;;;8.35;2.90;;;20.00;63.20;;;;;;5035542;28;20036;-83
2021/08/16 05:59:20;;;;;;;2.70;2.60;;;19.90;63.30;;;;;;5056485;28;20033;-83
2021/08/16 06:01:46;;;;;;;2.60;2.50;;;19.90;63.30;;;;;;5036723;28;20029;-83
2021/08/16 06:04:12;;;;;;;2.55;2.45;;;19.90;63.40;;;;;;5055107;28;20378;-83
2021/08/16 06:06:38;;;;;;;2.70;2.60;;;20.00;63.40;;;;;;5036302;28;20032;-83
2021/08/16 06:09:05;;;;;;;2.67;2.58;;;20.00;63.40;;;;;;5033600;28;20462;-84
2021/08/16 06:11:31;;;;;;;2.70;2.60;;;20.00;63.40;;;;;;5056102;28;20048;-84
2021/08/16 06:13:57;;;;;;;3.22;3.10;;;20.10;63.40;;;;;;5037013;28;20040;-83
2021/08/16 06:16:24;;;;;;;3.30;3.15;;;20.10;63.40;;;;;;5036582;28;20033;-84
2021/08/16 06:18:53;;;;;;;2.90;2.80;;;20.10;63.40;;;;;;5019412;28;20036;-83
2021/08/16 06:21:19;;;;;;;2.80;2.70;;;20.10;63.40;;;;;;5051207;28;20032;-83
2021/08/16 06:23:46;;;;;;;2.90;2.80;;;20.20;63.40;;;;;;5055239;28;20033;-83
2021/08/16 06:26:12;;;;;;;3.40;3.20;;;20.30;63.40;;;;;;5070710;28;20377;-83
2021/08/16 06:28:38;;;;;;;3.60;3.40;;;20.30;63.30;;;;;;5035560;28;20044;-83
2021/08/16 06:31:04;;;;;;;4.07;3.70;;;20.50;63.20;;;;;;5054061;28;20489;-83
2021/08/16 06:33:30;;;;;;;3.40;3.30;;;20.50;63.00;;;;;;5018359;28;20044;-83
2021/08/16 06:35:56;;;;;;;3.58;3.42;;;20.60;63.00;;;;;;5052173;28;20151;-83
2021/08/16 06:38:26;;;;;;;3.42;3.33;;;20.70;62.90;;;;;;5071761;28;20029;-82
2021/08/16 06:40:53;;;;;;;3.45;3.35;;;20.70;62.80;;;;;;5052689;28;20041;-83
2021/08/16 06:43:20;;;;;;;3.88;3.67;;;20.80;62.90;;;;;;5036928;28;20033;-83
2021/08/16 06:45:46;;;;;;;3.35;3.25;;;20.80;62.90;;;;;;5036437;28;20032;-84
2021/08/16 06:48:13;;;;;;;3.90;3.60;;;20.80;63.00;;;;;;5049202;28;20053;-83
2021/08/16 06:50:39;;;;;;;3.35;3.15;;;20.80;63.00;;;;;;5056439;28;20048;-83
2021/08/16 06:53:06;;;;;;;3.63;3.45;;;20.80;63.10;;;;;;5036607;28;20045;-84
2021/08/16 06:55:32;;;;;;;3.78;3.58;;;20.90;63.90;;;;;;5035577;28;20033;-83
2021/08/16 06:57:58;;;;;;;3.33;3.22;;;20.90;63.00;;;;;;5053658;28;20059;-83
2021/08/16 07:00:24;;;;;;;3.42;3.30;;;21.00;63.00;;;;;;5035454;28;20109;-83
2021/08/16 07:02:50;;;;;;;3.70;3.50;;;21.00;62.80;;;;;;5056296;28;20028;-83
2021/08/16 07:05:17;;;;;;;3.72;3.53;;;21.20;62.80;;;;;;5058020;28;20040;-84
2021/08/16 07:07:43;;;;;;;3.90;3.70;;;21.30;62.60;;;;;;5055651;28;20401;-83
2021/08/16 07:10:10;;;;;;;3.80;3.60;;;21.40;62.40;;;;;;5039642;28;20053;-83
2021/08/16 07:12:36;;;;;;;4.22;4.03;;;21.50;62.30;;;;;;5055606;28;20029;-83
2021/08/16 07:15:02;;;;;;;4.32;4.13;;;21.60;62.20;;;;;;5037245;28;20032;-83
2021/08/16 07:17:28;;;;;;;4.40;4.20;;;21.60;62.20;;;;;;5074529;28;20393;-84
2021/08/16 07:19:54;;;;;;;4.07;3.88;;;21.60;62.20;;;;;;5040067;28;20492;-83
2021/08/16 07:22:20;;;;;;;3.70;3.50;;;21.50;62.40;;;;;;5057711;28;20048;-83
2021/08/16 07:24:46;;;;;;;3.60;3.40;;;21.50;62.70;;;;;;5048093;28;20032;-83
2021/08/16 07:27:12;;;;;;;4.30;4.10;;;21.60;62.70;;;;;;5069483;28;20025;-83
2021/08/16 07:29:38;;;;;;;3.83;3.63;;;21.60;62.60;;;;;;5052320;28;20044;-83
2021/08/16 07:32:05;;;;;;;4.40;4.20;;;21.50;62.50;;;;;;5039849;28;20045;-84
2021/08/16 07:34:33;;;;;;;4.38;4.07;;;21.60;62.60;;;;;;5039692;28;20049;-83
2021/08/16 07:36:59;;;;;;;4.18;3.97;;;21.60;62.50;;;;;;5038203;28;20036;-83
2021/08/16 07:39:25;;;;;;;4.22;4.03;;;21.70;62.50;;;;;;5054761;28;20029;-84
2021/08/16 07:41:53;;;;;;;4.25;4.05;;;21.70;62.50;;;;;;5056913;28;20021;-84
2021/08/16 07:44:19;;;;;;;4.90;4.60;;;21.70;62.50;;;;;;5058062;28;20045;-83
2021/08/16 07:46:45;;;;;;;4.25;4.05;;;21.70;62.50;;;;;;5037746;28;20037;-85
2021/08/16 07:49:11;;;;;;;4.75;4.45;;;21.70;62.50;;;;;;5038772;28;20052;-83
2021/08/16 07:51:37;;;;;;;4.78;4.57;;;21.70;62.50;;;;;;5056016;28;20024;-83
2021/08/16 07:54:03;;;;;;;4.53;4.32;;;21.70;62.60;;;;;;5019866;28;20040;-83
2021/08/16 07:56:29;;;;;;;4.53;4.32;;;21.70;63.40;;;;;;5059390;28;20021;-83
2021/08/16 07:58:55;;;;;;;5.05;4.85;;;21.70;62.50;;;;;;5039499;28;20033;-82
2021/08/16 08:01:21;;;;;;;4.70;4.50;;;21.90;62.30;;;;;;5021981;28;20029;-83
2021/08/16 08:03:47;;;;;;;4.80;4.40;;;22.10;62.00;;;;;;5057148;28;20390;-83
2021/08/16 08:06:14;;;;;;;4.10;3.90;;;22.30;61.50;;;;;;5033804;28;20033;-83
2021/08/16 08:08:40;;;;;;;4.13;3.92;;;22.60;61.10;;;;;;5044631;28;20041;-86
2021/08/16 08:11:06;;;;;;;4.43;4.22;;;22.60;60.80;;;;;;5070124;28;20474;-86
2021/08/16 08:13:32;;;;;;;4.40;4.20;;;22.70;60.90;;;;;;5056867;28;20041;-84
2021/08/16 08:15:58;;;;;;;4.00;3.80;;;22.60;61.00;;;;;;5054867;28;20040;-83
2021/08/16 08:18:25;;;;;;;3.97;3.78;;;22.50;61.20;;;;;;5033979;28;20038;-83
2021/08/16 08:20:51;;;;;;;4.50;4.30;;;22.50;61.40;;;;;;5055917;28;20032;-83
2021/08/16 08:23:17;;;;;;;4.35;4.15;;;22.50;61.30;;;;;;5073346;28;20024;-83
2021/08/16 08:25:43;;;;;;;3.97;3.78;;;22.50;61.20;;;;;;5055395;28;20044;-83
2021/08/16 08:28:12;;;;;;;4.28;4.07;;;22.50;61.30;;;;;;5056636;28;20482;-84
2021/08/16 08:30:39;;;;;;;4.30;4.10;;;22.40;61.20;;;;;;5037521;28;20374;-83
2021/08/16 08:33:05;;;;;;;4.18;3.97;;;22.30;61.30;;;;;;5035023;28;20052;-85
2021/08/16 08:35:31;;;;;;;4.13;3.92;;;22.20;61.60;;;;;;5058203;28;20032;-83
2021/08/16 08:37:57;;;;;;;4.00;3.67;;;22.10;61.80;;;;;;5066163;28;20394;-84
2021/08/16 08:40:23;;;;;;;3.97;3.78;;;22.00;61.90;;;;;;5044926;28;20029;-82
2021/08/16 08:42:53;;;;;;;3.30;3.20;;;22.00;62.00;;;;;;5037823;28;20390;-83
2021/08/16 08:45:24;;;;;;;3.65;3.45;;;22.00;62.10;;;;;;5034773;28;20044;-86
2021/08/16 08:47:50;;;;;;;3.60;3.40;;;21.90;62.10;;;;;;5055807;28;20033;-83
2021/08/16 08:50:17;;;;;;;3.30;3.20;;;21.90;62.10;;;;;;5069356;28;20367;-83
2021/08/16 08:52:43;;;;;;;3.95;3.75;;;21.80;62.00;;;;;;5057589;28;20037;-84
2021/08/16 08:55:10;;;;;;;4.30;4.10;;;21.90;62.00;;;;;;5054008;28;20048;-84
2021/08/16 08:57:37;;;;;;;4.10;3.90;;;22.10;61.70;;;;;;5036987;28;20587;-83
2021/08/16 09:00:04;;;;;;;4.38;4.18;;;22.30;61.20;;;;;;5018128;28;20035;-83
2021/08/16 09:02:30;;;;;;;4.60;4.40;;;22.50;60.80;;;;;;5057952;28;20028;-83
2021/08/16 09:04:57;;;;;;;19.15;5.75;;;22.70;60.50;;;;;;5038744;28;20040;-84
2021/08/16 09:07:33;;;;;;;4.93;4.70;;;22.90;60.10;;;;;;5020726;28;20049;-85
2021/08/16 09:09:59;;;;;;;4.50;4.30;;;23.30;59.70;;;;;;5056020;28;20372;-83
2021/08/16 09:12:32;;;;;;;4.43;4.22;;;23.60;59.20;;;;;;5050451;28;20060;-83
2021/08/16 09:14:59;;;;;;;4.18;3.97;;;23.70;58.80;;;;;;5082423;28;20048;-84
2021/08/16 09:17:29;;;;;;;4.95;4.75;;;23.90;58.70;;;;;;5039436;28;20033;-82
2021/08/16 09:19:55;;;;;;;5.80;5.50;;;24.20;58.50;;;;;;5019747;28;20033;-85
2021/08/16 09:22:33;;;;;;;5.25;5.05;;;24.40;58.00;;;;;;5037932;28;20044;-84
2021/08/16 09:25:04;;;;;;;5.15;4.95;;;24.50;57.80;;;;;;5055612;28;20031;-84
2021/08/16 09:27:30;;;;;;;;;;;24.40;57.80;;;;;;5036686;28;20496;-83
2021/08/16 09:29:56;;;;;;;4.95;4.72;;;24.30;58.10;;;;;;5035767;28;19940;-84
2021/08/16 09:32:32;;;;;;;4.70;4.50;;;24.20;58.20;;;;;;5072151;28;20486;-85
2021/08/16 09:35:06;;;;;;;4.82;4.63;;;24.10;58.30;;;;;;5053379;28;20044;-83
2021/08/16 09:37:32;;;;;;;4.90;4.70;;;24.10;59.00;;;;;;5038168;28;20028;-84
2021/08/16 09:40:06;;;;;;;4.68;4.47;;;24.00;58.30;;;;;;5021073;28;20043;-84
2021/08/16 09:42:52;;;;;;;4.90;4.70;;;24.00;58.30;;;;;;5052045;28;20026;-83
2021/08/16 09:45:34;;;;;;;5.22;4.93;;;23.90;58.40;;;;;;5032916;28;20048;-84
2021/08/16 09:48:01;;;;;;;5.03;4.82;;;24.00;58.20;;;;;;5052468;28;20029;-83
2021/08/16 09:50:44;;;;;;;4.43;4.22;;;24.10;58.00;;;;;;5055414;28;20035;-83
2021/08/16 09:53:17;;;;;;;4.90;4.70;;;24.30;57.80;;;;;;5053249;28;20029;-83
2021/08/16 09:55:48;;;;;;;5.03;4.82;;;24.50;57.10;;;;;;5070327;28;20379;-83
2021/08/16 09:58:15;;;;;;;4.95;4.75;;;24.70;56.70;;;;;;5036964;28;20040;-84
2021/08/16 10:00:42;;;;;;;6.03;5.72;;;24.80;56.50;;;;;;5053855;28;20523;-84
2021/08/16 10:03:08;;;;;;;5.95;5.65;;;24.90;56.20;;;;;;5016566;28;20054;-84
2021/08/16 10:05:38;;;;;;;6.40;6.03;;;24.90;56.00;;;;;;5055466;28;20474;-84
2021/08/16 10:08:11;;;;;;;6.60;6.30;;;25.00;56.00;;;;;;5054852;28;20033;-84
2021/08/16 10:10:38;;;;;;;5.40;5.20;;;25.20;55.40;;;;;;5052681;28;20025;-84
2021/08/16 10:13:05;;;;;;;6.47;6.18;;;25.40;55.10;;;;;;5020258;28;20029;-84
2021/08/16 10:15:44;;;;;;;5.82;5.53;;;25.50;54.90;;;;;;5051873;28;20041;-84
2021/08/16 10:18:12;;;;;;;5.78;5.47;;;25.50;54.90;;;;;;5032634;28;20021;-84
2021/08/16 10:20:38;;;;;;;5.07;4.88;;;25.30;55.10;;;;;;5071932;28;20048;-84
2021/08/16 10:23:24;;;;;;;5.18;4.97;;;25.00;55.30;;;;;;5053316;28;20025;-83
2021/08/16 10:25:51;;;;;;;5.72;5.43;;;24.90;55.50;;;;;;5021883;28;20044;-84
2021/08/16 10:28:31;;;;;;;4.80;4.60;;;24.80;55.60;;;;;;5036343;28;20394;-84
2021/08/16 10:31:00;;;;;;;5.28;4.88;;;24.70;55.40;;;;;;5053883;28;20043;-84
2021/08/16 10:33:26;;;;;;;5.28;4.97;;;24.60;55.50;;;;;;5034594;28;20042;-84
2021/08/16 10:35:53;;;;;;;5.20;5.00;;;24.60;55.50;;;;;;5058080;28;20021;-84
2021/08/16 10:38:19;;;;;;;5.80;5.50;;;24.90;55.10;;;;;;5058649;28;20489;-84
2021/08/16 10:40:49;;;;;;;5.45;5.15;;;25.10;54.60;;;;;;5039754;28;20033;-86
2021/08/16 10:43:16;;;;;;;4.85;4.65;;;25.30;54.30;;;;;;5026872;28;20045;-83
2021/08/16 10:45:52;;;;;;;5.53;5.22;;;25.30;54.30;;;;;;5057304;28;20044;-83
2021/08/16 10:48:24;;;;;;;5.20;5.00;;;25.10;54.30;;;;;;5021839;28;20017;-84
2021/08/16 10:51:09;;;;;;;5.10;4.90;;;24.90;54.50;;;;;;5040229;28;20029;-86
2021/08/16 10:53:52;;;;;;;5.38;5.18;;;24.90;54.60;;;;;;5041883;28;20049;-85
2021/08/16 10:56:19;;;;;;;4.72;4.53;;;24.80;54.50;;;;;;5059598;28;20040;-83
2021/08/16 10:58:46;;;;;;;4.70;4.50;;;24.80;54.40;;;;;;5040600;28;20051;-83
2021/08/16 11:01:31;;;;;;;5.10;4.90;;;24.70;54.30;;;;;;5056196;28;20382;-84
2021/08/16 11:03:57;;;;;;;5.43;5.18;;;24.50;54.30;;;;;;5058240;28;20025;-84
2021/08/16 11:06:23;;;;;;;5.18;4.85;;;24.50;54.30;;;;;;5055213;28;20028;-83
2021/08/16 11:08:58;;;;;;;5.50;5.20;;;24.60;54.10;;;;;;5040379;28;20025;-83
2021/08/16 11:11:24;;;;;;;5.22;5.00;;;24.70;53.90;;;;;;5072884;28;20025;-83
2021/08/16 11:14:02;;;;;;;5.47;5.18;;;24.60;53.80;;;;;;5055622;28;20402;-83
2021/08/16 11:16:28;;;;;;;5.18;4.88;;;24.50;53.70;;;;;;5056288;28;20044;-84
2021/08/16 11:18:57;;;;;;;4.75;4.55;;;24.40;53.60;;;;;;5040528;28;20373;-83
2021/08/16 11:21:25;;;;;;;5.45;5.20;;;24.40;53.60;;;;;;5037452;28;20033;-85
2021/08/16 11:23:56;;;;;;;5.68;5.38;;;24.50;53.50;;;;;;5039232;28;20386;-84
2021/08/16 11:26:22;;;;;;;;;;;24.60;53.20;;;;;;5073304;28;20036;-84
2021/08/16 11:28:48;;;;;;;5.40;5.10;;;24.70;53.00;;;;;;5060306;28;19968;-84
2021/08/16 11:31:14;;;;;;;5.75;5.45;;;24.70;52.80;;;;;;5038031;28;20411;-83
2021/08/16 11:33:40;;;;;;;6.00;5.70;;;24.90;52.70;;;;;;5039053;28;20051;-84
2021/08/16 11:36:13;;;;;;;6.15;5.85;;;25.00;52.30;;;;;;5054066;28;20386;-84
2021/08/16 11:38:41;;;;;;;5.95;5.65;;;25.10;52.00;;;;;;5041094;28;20486;-84
2021/08/16 11:41:08;;;;;;;6.25;5.88;;;25.10;51.70;;;;;;5038629;28;20029;-84
2021/08/16 11:43:34;;;;;;;6.43;6.13;;;25.00;51.70;;;;;;5056787;28;20393;-83
2021/08/16 11:46:13;;;;;;;5.80;5.50;;;25.00;51.60;;;;;;5055597;28;20486;-84
2021/08/16 11:48:50;;;;;;;6.55;6.15;;;25.30;51.50;;;;;;5038052;28;20045;-84
2021/08/16 11:51:16;;;;;;;5.97;5.68;;;25.50;50.90;;;;;;5037681;28;20030;-85
2021/08/16 11:53:43;;;;;;;6.78;6.47;;;25.50;50.50;;;;;;5059125;28;20039;-84
2021/08/16 11:56:09;;;;;;;6.38;6.07;;;25.40;50.70;;;;;;5039317;28;20041;-83
2021/08/16 11:58:37;;;;;;;6.80;6.47;;;25.40;50.80;;;;;;5039250;28;20398;-83
2021/08/16 12:01:04;;;;;;;6.95;6.65;;;25.50;51.30;;;;;;5038852;28;20393;-84
2021/08/16 12:03:31;;;;;;;7.63;7.28;;;25.80;50.40;;;;;;5037258;28;20029;-83
2021/08/16 12:05:57;;;;;;;8.32;7.93;;;26.00;50.10;;;;;;5020939;28;20025;-85
2021/08/16 12:08:23;;;;;;;8.32;7.93;;;26.20;49.80;;;;;;5057702;28;20471;-83
2021/08/16 12:10:49;;;;;;;8.43;8.02;;;26.40;49.60;;;;;;5037890;28;20029;-84
2021/08/16 12:13:15;;;;;;;7.85;7.50;;;26.60;49.30;;;;;;5056640;28;20555;-84
2021/08/16 12:15:42;;;;;;;8.68;8.27;;;26.60;49.20;;;;;;5021599;28;20055;-84
2021/08/16 12:18:09;;;;;;;8.25;7.82;;;26.40;49.00;;;;;;5034422;28;20025;-84
2021/08/16 12:20:42;;;;;;;9.30;8.90;;;26.20;49.10;;;;;;5057038;28;20037;-84
2021/08/16 12:23:08;;;;;;;7.65;7.28;;;26.10;49.10;;;;;;5040065;28;20033;-83
2021/08/16 12:25:45;;;;;;;6.78;6.47;;;26.20;49.00;;;;;;5056934;28;20040;-84
2021/08/16 12:28:11;;;;;;;7.65;6.95;;;26.20;48.90;;;;;;5022423;28;20025;-84
2021/08/16 12:30:38;;;;;;;7.63;7.30;;;26.20;48.80;;;;;;5037278;28;20024;-84
2021/08/16 12:33:11;;;;;;;8.02;7.63;;;26.30;48.90;;;;;;5053071;28;20505;-82
2021/08/16 12:35:37;;;;;;;6.90;6.60;;;26.30;48.70;;;;;;5073521;28;20446;-84
2021/08/16 12:38:04;;;;;;;7.53;7.20;;;26.40;48.60;;;;;;5055219;28;20033;-83
2021/08/16 12:40:30;;;;;;;8.50;8.10;;;26.50;48.40;;;;;;5056459;28;20367;-84
2021/08/16 12:42:58;;;;;;;7.18;6.88;;;26.40;48.20;;;;;;5056076;28;20031;-83
2021/08/16 12:45:24;;;;;;;8.60;8.20;;;26.30;48.40;;;;;;5052848;28;20029;-82
2021/08/16 12:48:01;;;;;;;9.80;9.35;;;26.20;48.40;;;;;;5037905;28;20029;-84
2021/08/16 12:50:28;;;;;;;9.15;8.75;;;26.20;48.20;;;;;;5056576;28;20025;-83